Skip Navigation Links Skip Navigation Links

Current Weather

Person County, Roxboro, N.C.

For information only: do not use for flight planning or navigation.
Latest weather
Observation time Thursday, December 13, 2018 1:35 PM EST
Local time Thursday, December 13, 2018 2:14 PM EST
Flight conditions Visual Meteorological Conditions
Winds
Wind direction Southwest (230°)
Wind speed 3 mph
Visibility 10 mi.
Sky condition
Ceiling 10,000 ft. overcast
Cloud layer overcast 10,000 ft.
Temperature 45°F
Dewpoint 32°F
Altimeter 30.30 in.Hg
Derived measurements
Relative humidity 61%
Wind chill 43°F
Density altitude -694 ft.
Remarks
Fully automated report.
Automated weather observing station with precipitation discriminator.
METAR KTDF 131835Z AUTO 23003KT 10SM OVC100 07/00 A3030 RMK AO2

Settings

Location code

InnerDrive.Weather 4.0.6770.0 Release CLR 4.0.30319.42000
Copyright ©2018 Inner Drive Technology. All rights reserved. Portions Copyright ©1986-2018 David Braverman.

Find weather

Site navigation


Skip Navigation Links

Place info

Page info

PayPal - The safer, easier way to pay online!

Return home.

Copyright ©2018 Inner Drive Technology. Purveyors of fine, hand-crafted computer software. Page printed 2018-12-13T19:14:51 UTC.